Etusivu
METAR-TAF:

METAR-TAF

Lentoasemat :

Ağrı, Turkki

Leveyspiiri: 39-39-16N, Pituuspiiri: 43-01-38E, korkeus merenpinnasta: 1665 m

Tämänhetkinen sää

Tämä raportti tehtiin 15 tuntia ja 21 minuuttia sitten, kello 12.50 UTC
Tuuli 16 kn lännestä/lounaasta
Lämpötila 22°C
Kosteus 27%
Ilmanpaine 1017 hPa
Näkyvyys 10 km tai enemmän
Muutamia pilviä 4000 ft:n korkeudessa

METAR: LTCO 301250Z 24016KT 9999 FEW040 22/02 Q1017

Aika: 07:11 (04:11 UTC)

Sääennuste

Tämä raportti tehtiin 2 tuntia ja 31 minuuttia sitten, kello 01.40 UTC
Ennuste voimassa 31. päivästä klo 03 UTC - 31. päivään klo 12 UTC
Tuuli 2 kn eri suunnista
Näkyvyys 10 km tai enemmän
ei pilviä alle 1500 m:ssä eikä cumulonimbus-pilviä

TAF: LTCO 310140Z 3103/3112 VRB02KT CAVOK

Säähavainnot ja -ennusteet yli 4000 lentoasemalta (METAR- ja TAF-raportit).

Käytössä olevat sääasemat on merkitty karttaan keltaisilla ja punaisilla pisteillä.

Aseta hiiri pisteen päälle nähdäksesi sääaseman nimen.

Klikkaa sitten nähdäksesi säähavainnot ja -ennusteet.

Kartan vaihtaminen: klikkaa mustalla rastilla varustettuja vihreitä pisteitä, niin voit zoomata sisään; viivalla varustettua vihreää pistettä, niin voit zoomata ulos tai vihreitä nuolia, niin pääset viereisille kartoille.


METAR-TAF: